sensor_id;sensor_type;location;lat;lon;timestamp;P1;durP1;ratioP1;P2;durP2;ratioP2
14272;SDS011;7220;49.450;11.052;2023-07-28T00:00:03;5.00;;;4.60;;
14272;SDS011;7220;49.450;11.052;2023-07-28T00:04:04;5.30;;;4.80;;
14272;SDS011;7220;49.450;11.052;2023-07-28T00:08:07;5.85;;;5.35;;
14272;SDS011;7220;49.450;11.052;2023-07-28T00:12:07;6.68;;;5.43;;
14272;SDS011;7220;49.450;11.052;2023-07-28T00:16:08;6.80;;;5.35;;
14272;SDS011;7220;49.450;11.052;2023-07-28T00:20:10;5.93;;;5.35;;
14272;SDS011;7220;49.450;11.052;2023-07-28T00:24:11;6.72;;;5.40;;
14272;SDS011;7220;49.450;11.052;2023-07-28T00:28:11;6.00;;;5.32;;
14272;SDS011;7220;49.450;11.052;2023-07-28T00:32:11;6.25;;;5.70;;
14272;SDS011;7220;49.450;11.052;2023-07-28T00:36:12;5.63;;;5.13;;
14272;SDS011;7220;49.450;11.052;2023-07-28T00:40:12;5.55;;;5.05;;
14272;SDS011;7220;49.450;11.052;2023-07-28T00:44:13;5.97;;;5.28;;
14272;SDS011;7220;49.450;11.052;2023-07-28T00:48:14;5.80;;;5.30;;
14272;SDS011;7220;49.450;11.052;2023-07-28T00:52:16;5.65;;;4.90;;
14272;SDS011;7220;49.450;11.052;2023-07-28T00:56:16;6.10;;;5.43;;
14272;SDS011;7220;49.450;11.052;2023-07-28T01:00:17;5.55;;;5.03;;
14272;SDS011;7220;49.450;11.052;2023-07-28T01:04:18;5.38;;;4.88;;
14272;SDS011;7220;49.450;11.052;2023-07-28T01:12:34;7.10;;;5.75;;
14272;SDS011;7220;49.450;11.052;2023-07-28T01:16:34;5.75;;;5.00;;
14272;SDS011;7220;49.450;11.052;2023-07-28T01:20:34;5.30;;;4.90;;
14272;SDS011;7220;49.450;11.052;2023-07-28T01:25:26;6.30;;;5.70;;
14272;SDS011;7220;49.450;11.052;2023-07-28T01:29:20;6.32;;;5.45;;
14272;SDS011;7220;49.450;11.052;2023-07-28T01:33:22;6.60;;;5.78;;
14272;SDS011;7220;49.450;11.052;2023-07-28T01:37:22;6.67;;;6.03;;
14272;SDS011;7220;49.450;11.052;2023-07-28T01:41:22;6.33;;;5.83;;
14272;SDS011;7220;49.450;11.052;2023-07-28T01:45:23;7.83;;;6.93;;
14272;SDS011;7220;49.450;11.052;2023-07-28T01:49:23;6.22;;;5.63;;
14272;SDS011;7220;49.450;11.052;2023-07-28T01:53:23;6.83;;;6.10;;
14272;SDS011;7220;49.450;11.052;2023-07-28T01:57:23;6.50;;;5.77;;
14272;SDS011;7220;49.450;11.052;2023-07-28T02:01:27;6.78;;;6.05;;
14272;SDS011;7220;49.450;11.052;2023-07-28T02:05:27;6.50;;;5.90;;
14272;SDS011;7220;49.450;11.052;2023-07-28T02:09:28;6.47;;;5.88;;
14272;SDS011;7220;49.450;11.052;2023-07-28T02:13:29;6.43;;;5.40;;
14272;SDS011;7220;49.450;11.052;2023-07-28T02:17:29;6.40;;;5.80;;
14272;SDS011;7220;49.450;11.052;2023-07-28T02:21:29;8.13;;;6.82;;
14272;SDS011;7220;49.450;11.052;2023-07-28T02:25:30;6.87;;;6.17;;
14272;SDS011;7220;49.450;11.052;2023-07-28T02:29:30;7.45;;;6.75;;
14272;SDS011;7220;49.450;11.052;2023-07-28T02:33:30;8.13;;;7.30;;
14272;SDS011;7220;49.450;11.052;2023-07-28T02:37:33;7.88;;;6.78;;
14272;SDS011;7220;49.450;11.052;2023-07-28T02:41:34;9.43;;;7.82;;
14272;SDS011;7220;49.450;11.052;2023-07-28T02:45:34;7.67;;;6.93;;
14272;SDS011;7220;49.450;11.052;2023-07-28T02:49:34;7.73;;;7.03;;
14272;SDS011;7220;49.450;11.052;2023-07-28T02:53:35;8.02;;;7.22;;
14272;SDS011;7220;49.450;11.052;2023-07-28T02:57:35;12.40;;;11.05;;
14272;SDS011;7220;49.450;11.052;2023-07-28T03:01:35;8.82;;;7.93;;
14272;SDS011;7220;49.450;11.052;2023-07-28T03:05:36;10.50;;;9.45;;
14272;SDS011;7220;49.450;11.052;2023-07-28T03:09:37;10.68;;;9.13;;
14272;SDS011;7220;49.450;11.052;2023-07-28T03:13:37;8.23;;;7.43;;
14272;SDS011;7220;49.450;11.052;2023-07-28T03:17:37;9.93;;;7.70;;
14272;SDS011;7220;49.450;11.052;2023-07-28T03:21:37;8.57;;;7.78;;
14272;SDS011;7220;49.450;11.052;2023-07-28T03:25:38;8.98;;;8.18;;
14272;SDS011;7220;49.450;11.052;2023-07-28T03:29:38;8.60;;;7.80;;
14272;SDS011;7220;49.450;11.052;2023-07-28T03:33:38;8.50;;;7.80;;
14272;SDS011;7220;49.450;11.052;2023-07-28T03:37:39;9.93;;;7.77;;
14272;SDS011;7220;49.450;11.052;2023-07-28T03:41:39;10.43;;;8.57;;
14272;SDS011;7220;49.450;11.052;2023-07-28T03:45:39;9.27;;;8.30;;
14272;SDS011;7220;49.450;11.052;2023-07-28T03:49:39;8.50;;;7.73;;
14272;SDS011;7220;49.450;11.052;2023-07-28T03:53:40;8.77;;;7.88;;
14272;SDS011;7220;49.450;11.052;2023-07-28T03:57:40;8.95;;;8.05;;
14272;SDS011;7220;49.450;11.052;2023-07-28T04:01:40;9.13;;;8.27;;
14272;SDS011;7220;49.450;11.052;2023-07-28T04:05:41;10.10;;;8.53;;
14272;SDS011;7220;49.450;11.052;2023-07-28T04:09:41;9.47;;;8.47;;
14272;SDS011;7220;49.450;11.052;2023-07-28T04:13:41;10.87;;;9.10;;
14272;SDS011;7220;49.450;11.052;2023-07-28T04:17:42;9.80;;;8.80;;
14272;SDS011;7220;49.450;11.052;2023-07-28T04:21:42;9.47;;;8.43;;
14272;SDS011;7220;49.450;11.052;2023-07-28T04:25:42;8.93;;;8.13;;
14272;SDS011;7220;49.450;11.052;2023-07-28T04:29:42;10.05;;;8.30;;
14272;SDS011;7220;49.450;11.052;2023-07-28T04:33:43;10.73;;;8.35;;
14272;SDS011;7220;49.450;11.052;2023-07-28T04:37:43;9.25;;;8.35;;
14272;SDS011;7220;49.450;11.052;2023-07-28T04:41:44;8.68;;;7.88;;
14272;SDS011;7220;49.450;11.052;2023-07-28T04:45:44;8.83;;;8.03;;
14272;SDS011;7220;49.450;11.052;2023-07-28T04:49:45;8.27;;;7.45;;
14272;SDS011;7220;49.450;11.052;2023-07-28T04:53:45;8.30;;;7.50;;
14272;SDS011;7220;49.450;11.052;2023-07-28T04:57:45;8.87;;;7.97;;
14272;SDS011;7220;49.450;11.052;2023-07-28T05:01:46;8.38;;;7.68;;
14272;SDS011;7220;49.450;11.052;2023-07-28T05:05:47;9.33;;;8.43;;
14272;SDS011;7220;49.450;11.052;2023-07-28T05:09:47;8.68;;;7.50;;
14272;SDS011;7220;49.450;11.052;2023-07-28T05:13:47;9.57;;;7.83;;
14272;SDS011;7220;49.450;11.052;2023-07-28T05:17:48;10.50;;;9.47;;
14272;SDS011;7220;49.450;11.052;2023-07-28T05:21:48;9.80;;;8.53;;
14272;SDS011;7220;49.450;11.052;2023-07-28T05:25:48;8.80;;;7.97;;
14272;SDS011;7220;49.450;11.052;2023-07-28T05:29:48;8.43;;;7.63;;
14272;SDS011;7220;49.450;11.052;2023-07-28T05:33:49;8.80;;;8.00;;
14272;SDS011;7220;49.450;11.052;2023-07-28T05:37:49;9.20;;;8.30;;
14272;SDS011;7220;49.450;11.052;2023-07-28T05:41:49;10.30;;;8.07;;
14272;SDS011;7220;49.450;11.052;2023-07-28T05:45:50;10.00;;;8.43;;
14272;SDS011;7220;49.450;11.052;2023-07-28T05:49:51;9.00;;;8.10;;
14272;SDS011;7220;49.450;11.052;2023-07-28T05:53:54;9.40;;;8.55;;
14272;SDS011;7220;49.450;11.052;2023-07-28T05:57:54;9.20;;;8.30;;
14272;SDS011;7220;49.450;11.052;2023-07-28T06:01:55;13.55;;;8.20;;
14272;SDS011;7220;49.450;11.052;2023-07-28T06:05:55;9.27;;;8.37;;
14272;SDS011;7220;49.450;11.052;2023-07-28T06:09:56;10.15;;;7.63;;
14272;SDS011;7220;49.450;11.052;2023-07-28T06:13:56;9.97;;;7.73;;
14272;SDS011;7220;49.450;11.052;2023-07-28T06:17:58;8.55;;;7.65;;
14272;SDS011;7220;49.450;11.052;2023-07-28T06:21:58;8.20;;;7.37;;
14272;SDS011;7220;49.450;11.052;2023-07-28T06:25:58;8.47;;;7.67;;
14272;SDS011;7220;49.450;11.052;2023-07-28T06:29:58;10.25;;;8.32;;
14272;SDS011;7220;49.450;11.052;2023-07-28T06:33:59;9.10;;;8.00;;
14272;SDS011;7220;49.450;11.052;2023-07-28T06:37:59;8.90;;;8.00;;
14272;SDS011;7220;49.450;11.052;2023-07-28T06:42:01;9.68;;;7.60;;
14272;SDS011;7220;49.450;11.052;2023-07-28T06:46:01;8.05;;;7.25;;
14272;SDS011;7220;49.450;11.052;2023-07-28T06:50:01;8.48;;;7.47;;
14272;SDS011;7220;49.450;11.052;2023-07-28T06:54:02;11.13;;;7.75;;
14272;SDS011;7220;49.450;11.052;2023-07-28T06:58:02;9.07;;;6.97;;
14272;SDS011;7220;49.450;11.052;2023-07-28T07:02:02;10.90;;;7.67;;
14272;SDS011;7220;49.450;11.052;2023-07-28T07:06:03;7.63;;;6.93;;
14272;SDS011;7220;49.450;11.052;2023-07-28T07:10:03;10.68;;;8.32;;
14272;SDS011;7220;49.450;11.052;2023-07-28T07:14:04;9.68;;;8.65;;
14272;SDS011;7220;49.450;11.052;2023-07-28T07:18:04;10.15;;;9.05;;
14272;SDS011;7220;49.450;11.052;2023-07-28T07:22:05;11.45;;;8.55;;
14272;SDS011;7220;49.450;11.052;2023-07-28T07:26:06;9.73;;;8.70;;
14272;SDS011;7220;49.450;11.052;2023-07-28T07:30:06;12.00;;;7.80;;
14272;SDS011;7220;49.450;11.052;2023-07-28T07:34:08;9.68;;;7.18;;
14272;SDS011;7220;49.450;11.052;2023-07-28T07:38:08;7.18;;;6.25;;
14272;SDS011;7220;49.450;11.052;2023-07-28T07:42:09;7.88;;;6.13;;
14272;SDS011;7220;49.450;11.052;2023-07-28T07:46:11;9.65;;;6.43;;
14272;SDS011;7220;49.450;11.052;2023-07-28T07:50:11;6.07;;;5.30;;
14272;SDS011;7220;49.450;11.052;2023-07-28T07:54:12;6.82;;;5.10;;
14272;SDS011;7220;49.450;11.052;2023-07-28T07:58:15;6.18;;;5.55;;
14272;SDS011;7220;49.450;11.052;2023-07-28T08:02:16;8.70;;;5.90;;
14272;SDS011;7220;49.450;11.052;2023-07-28T08:06:16;7.00;;;6.30;;
14272;SDS011;7220;49.450;11.052;2023-07-28T08:10:17;6.10;;;5.47;;
14272;SDS011;7220;49.450;11.052;2023-07-28T08:14:17;6.75;;;5.90;;
14272;SDS011;7220;49.450;11.052;2023-07-28T08:18:18;6.87;;;5.07;;
14272;SDS011;7220;49.450;11.052;2023-07-28T08:22:18;6.22;;;5.32;;
14272;SDS011;7220;49.450;11.052;2023-07-28T08:26:18;5.07;;;4.57;;
14272;SDS011;7220;49.450;11.052;2023-07-28T08:30:19;5.38;;;4.53;;
14272;SDS011;7220;49.450;11.052;2023-07-28T08:34:19;5.70;;;4.43;;
14272;SDS011;7220;49.450;11.052;2023-07-28T08:38:19;4.40;;;4.00;;
14272;SDS011;7220;49.450;11.052;2023-07-28T08:42:20;5.45;;;4.75;;
14272;SDS011;7220;49.450;11.052;2023-07-28T08:46:22;4.38;;;3.95;;
14272;SDS011;7220;49.450;11.052;2023-07-28T08:50:23;5.15;;;3.65;;
14272;SDS011;7220;49.450;11.052;2023-07-28T08:54:23;4.80;;;3.57;;
14272;SDS011;7220;49.450;11.052;2023-07-28T08:58:24;3.97;;;3.55;;
14272;SDS011;7220;49.450;11.052;2023-07-28T09:02:24;4.20;;;3.83;;
14272;SDS011;7220;49.450;11.052;2023-07-28T09:06:28;3.67;;;3.13;;
14272;SDS011;7220;49.450;11.052;2023-07-28T09:10:47;5.82;;;3.30;;
14272;SDS011;7220;49.450;11.052;2023-07-28T09:14:49;4.07;;;3.20;;
14272;SDS011;7220;49.450;11.052;2023-07-28T09:19:05;3.50;;;3.20;;
14272;SDS011;7220;49.450;11.052;2023-07-28T09:23:07;3.15;;;2.88;;
14272;SDS011;7220;49.450;11.052;2023-07-28T09:27:13;2.95;;;2.72;;
14272;SDS011;7220;49.450;11.052;2023-07-28T09:31:28;3.10;;;2.80;;
14272;SDS011;7220;49.450;11.052;2023-07-28T09:35:29;3.45;;;2.13;;
14272;SDS011;7220;49.450;11.052;2023-07-28T09:39:30;2.00;;;1.90;;
14272;SDS011;7220;49.450;11.052;2023-07-28T09:43:31;5.40;;;3.00;;
14272;SDS011;7220;49.450;11.052;2023-07-28T09:47:32;3.33;;;2.57;;
14272;SDS011;7220;49.450;11.052;2023-07-28T09:51:34;3.78;;;2.33;;
14272;SDS011;7220;49.450;11.052;2023-07-28T09:55:37;3.58;;;2.60;;
14272;SDS011;7220;49.450;11.052;2023-07-28T09:59:40;2.13;;;1.73;;
14272;SDS011;7220;49.450;11.052;2023-07-28T10:03:41;2.20;;;1.90;;
14272;SDS011;7220;49.450;11.052;2023-07-28T10:07:43;2.28;;;2.08;;
14272;SDS011;7220;49.450;11.052;2023-07-28T10:11:44;1.90;;;1.67;;
14272;SDS011;7220;49.450;11.052;2023-07-28T10:15:45;2.22;;;1.60;;
14272;SDS011;7220;49.450;11.052;2023-07-28T10:19:46;1.60;;;1.50;;
14272;SDS011;7220;49.450;11.052;2023-07-28T10:23:53;2.70;;;1.70;;
14272;SDS011;7220;49.450;11.052;2023-07-28T10:27:55;1.52;;;1.42;;
14272;SDS011;7220;49.450;11.052;2023-07-28T10:31:56;3.95;;;1.60;;
14272;SDS011;7220;49.450;11.052;2023-07-28T10:35:57;1.95;;;1.38;;
14272;SDS011;7220;49.450;11.052;2023-07-28T10:44:28;2.45;;;1.73;;
14272;SDS011;7220;49.450;11.052;2023-07-28T10:48:29;1.73;;;1.63;;
14272;SDS011;7220;49.450;11.052;2023-07-28T10:52:29;1.70;;;1.60;;
14272;SDS011;7220;49.450;11.052;2023-07-28T10:56:30;1.73;;;1.63;;
14272;SDS011;7220;49.450;11.052;2023-07-28T11:00:30;1.80;;;1.70;;
14272;SDS011;7220;49.450;11.052;2023-07-28T11:04:31;1.90;;;1.80;;
14272;SDS011;7220;49.450;11.052;2023-07-28T11:08:32;1.90;;;1.80;;
14272;SDS011;7220;49.450;11.052;2023-07-28T11:12:38;2.22;;;1.83;;
14272;SDS011;7220;49.450;11.052;2023-07-28T11:16:50;1.95;;;1.70;;
14272;SDS011;7220;49.450;11.052;2023-07-28T11:20:50;1.77;;;1.67;;
14272;SDS011;7220;49.450;11.052;2023-07-28T11:24:51;2.70;;;1.80;;
14272;SDS011;7220;49.450;11.052;2023-07-28T11:28:52;1.95;;;1.85;;
14272;SDS011;7220;49.450;11.052;2023-07-28T11:32:54;1.70;;;1.60;;
14272;SDS011;7220;49.450;11.052;2023-07-28T11:36:54;1.73;;;1.58;;
14272;SDS011;7220;49.450;11.052;2023-07-28T11:40:55;4.90;;;1.50;;
14272;SDS011;7220;49.450;11.052;2023-07-28T11:44:57;1.83;;;1.40;;
14272;SDS011;7220;49.450;11.052;2023-07-28T11:49:07;1.90;;;1.50;;
14272;SDS011;7220;49.450;11.052;2023-07-28T11:53:11;3.67;;;1.40;;
14272;SDS011;7220;49.450;11.052;2023-07-28T11:57:11;1.42;;;1.33;;
14272;SDS011;7220;49.450;11.052;2023-07-28T12:01:12;3.03;;;1.40;;
14272;SDS011;7220;49.450;11.052;2023-07-28T12:05:16;1.38;;;1.27;;
14272;SDS011;7220;49.450;11.052;2023-07-28T12:09:18;3.13;;;1.50;;
14272;SDS011;7220;49.450;11.052;2023-07-28T12:13:18;1.60;;;1.50;;
14272;SDS011;7220;49.450;11.052;2023-07-28T12:17:22;1.73;;;1.63;;
14272;SDS011;7220;49.450;11.052;2023-07-28T12:21:25;2.47;;;1.10;;
14272;SDS011;7220;49.450;11.052;2023-07-28T12:25:26;2.60;;;1.30;;
14272;SDS011;7220;49.450;11.052;2023-07-28T12:29:26;1.53;;;1.43;;
14272;SDS011;7220;49.450;11.052;2023-07-28T12:33:26;3.10;;;1.53;;
14272;SDS011;7220;49.450;11.052;2023-07-28T12:37:26;2.40;;;1.40;;
14272;SDS011;7220;49.450;11.052;2023-07-28T12:41:27;2.60;;;1.80;;
14272;SDS011;7220;49.450;11.052;2023-07-28T12:45:27;4.33;;;1.70;;
14272;SDS011;7220;49.450;11.052;2023-07-28T12:49:28;5.88;;;2.20;;
14272;SDS011;7220;49.450;11.052;2023-07-28T12:53:31;2.17;;;1.90;;
14272;SDS011;7220;49.450;11.052;2023-07-28T12:57:32;2.50;;;1.63;;
14272;SDS011;7220;49.450;11.052;2023-07-28T13:01:33;1.40;;;1.30;;
14272;SDS011;7220;49.450;11.052;2023-07-28T13:05:34;2.90;;;1.75;;
14272;SDS011;7220;49.450;11.052;2023-07-28T13:09:34;2.43;;;2.13;;
14272;SDS011;7220;49.450;11.052;2023-07-28T13:13:36;5.35;;;1.80;;
14272;SDS011;7220;49.450;11.052;2023-07-28T13:17:36;4.23;;;1.63;;
14272;SDS011;7220;49.450;11.052;2023-07-28T13:21:37;3.50;;;1.80;;
14272;SDS011;7220;49.450;11.052;2023-07-28T13:25:37;2.05;;;1.75;;
14272;SDS011;7220;49.450;11.052;2023-07-28T13:29:38;2.85;;;1.63;;
14272;SDS011;7220;49.450;11.052;2023-07-28T13:33:38;3.58;;;1.60;;
14272;SDS011;7220;49.450;11.052;2023-07-28T13:37:39;1.30;;;1.20;;
14272;SDS011;7220;49.450;11.052;2023-07-28T13:41:39;6.87;;;2.20;;
14272;SDS011;7220;49.450;11.052;2023-07-28T13:45:39;1.80;;;1.60;;
14272;SDS011;7220;49.450;11.052;2023-07-28T13:49:40;2.60;;;1.87;;
14272;SDS011;7220;49.450;11.052;2023-07-28T13:53:40;2.05;;;1.60;;
14272;SDS011;7220;49.450;11.052;2023-07-28T13:57:41;2.13;;;1.60;;
14272;SDS011;7220;49.450;11.052;2023-07-28T14:01:41;5.15;;;1.80;;
14272;SDS011;7220;49.450;11.052;2023-07-28T14:05:42;1.58;;;1.48;;
14272;SDS011;7220;49.450;11.052;2023-07-28T14:09:42;4.77;;;1.80;;
14272;SDS011;7220;49.450;11.052;2023-07-28T14:13:42;3.80;;;1.75;;
14272;SDS011;7220;49.450;11.052;2023-07-28T14:17:43;2.80;;;1.90;;
14272;SDS011;7220;49.450;11.052;2023-07-28T14:21:43;2.03;;;1.87;;
14272;SDS011;7220;49.450;11.052;2023-07-28T14:25:43;2.47;;;1.60;;
14272;SDS011;7220;49.450;11.052;2023-07-28T14:29:44;2.70;;;1.60;;
14272;SDS011;7220;49.450;11.052;2023-07-28T14:33:44;2.77;;;1.73;;
14272;SDS011;7220;49.450;11.052;2023-07-28T14:37:44;1.40;;;1.30;;
14272;SDS011;7220;49.450;11.052;2023-07-28T14:41:44;1.60;;;1.50;;
14272;SDS011;7220;49.450;11.052;2023-07-28T14:45:45;1.80;;;1.70;;
14272;SDS011;7220;49.450;11.052;2023-07-28T14:49:48;1.48;;;1.38;;
14272;SDS011;7220;49.450;11.052;2023-07-28T14:53:49;1.90;;;1.73;;
14272;SDS011;7220;49.450;11.052;2023-07-28T14:57:49;2.47;;;1.80;;
14272;SDS011;7220;49.450;11.052;2023-07-28T15:01:49;2.28;;;2.08;;
14272;SDS011;7220;49.450;11.052;2023-07-28T15:05:50;2.37;;;1.90;;
14272;SDS011;7220;49.450;11.052;2023-07-28T15:09:50;2.00;;;1.90;;
14272;SDS011;7220;49.450;11.052;2023-07-28T15:13:50;2.53;;;2.07;;
14272;SDS011;7220;49.450;11.052;2023-07-28T15:17:51;1.80;;;1.70;;
14272;SDS011;7220;49.450;11.052;2023-07-28T15:21:51;2.03;;;1.93;;
14272;SDS011;7220;49.450;11.052;2023-07-28T15:25:52;2.17;;;1.67;;
14272;SDS011;7220;49.450;11.052;2023-07-28T15:29:57;2.03;;;1.52;;
14272;SDS011;7220;49.450;11.052;2023-07-28T15:33:57;1.60;;;1.50;;
14272;SDS011;7220;49.450;11.052;2023-07-28T15:37:57;1.77;;;1.50;;
14272;SDS011;7220;49.450;11.052;2023-07-28T15:41:57;1.73;;;1.40;;
14272;SDS011;7220;49.450;11.052;2023-07-28T15:45:58;2.33;;;1.40;;
14272;SDS011;7220;49.450;11.052;2023-07-28T15:50:01;1.38;;;1.27;;
14272;SDS011;7220;49.450;11.052;2023-07-28T15:54:04;1.45;;;1.35;;
14272;SDS011;7220;49.450;11.052;2023-07-28T15:58:05;1.08;;;1.08;;
14272;SDS011;7220;49.450;11.052;2023-07-28T16:02:05;3.90;;;1.90;;
14272;SDS011;7220;49.450;11.052;2023-07-28T16:06:06;1.40;;;1.30;;
14272;SDS011;7220;49.450;11.052;2023-07-28T16:10:07;1.50;;;1.40;;
14272;SDS011;7220;49.450;11.052;2023-07-28T16:14:09;2.70;;;1.48;;
14272;SDS011;7220;49.450;11.052;2023-07-28T16:18:09;1.70;;;1.60;;
14272;SDS011;7220;49.450;11.052;2023-07-28T16:22:10;2.05;;;1.85;;
14272;SDS011;7220;49.450;11.052;2023-07-28T16:26:11;2.20;;;2.00;;
14272;SDS011;7220;49.450;11.052;2023-07-28T16:30:11;2.20;;;1.70;;
14272;SDS011;7220;49.450;11.052;2023-07-28T16:34:12;2.50;;;1.90;;
14272;SDS011;7220;49.450;11.052;2023-07-28T16:38:12;2.30;;;2.10;;
14272;SDS011;7220;49.450;11.052;2023-07-28T16:42:13;2.30;;;2.10;;
14272;SDS011;7220;49.450;11.052;2023-07-28T16:46:14;2.20;;;2.00;;
14272;SDS011;7220;49.450;11.052;2023-07-28T16:50:14;2.37;;;2.13;;
14272;SDS011;7220;49.450;11.052;2023-07-28T16:54:14;3.50;;;2.13;;
14272;SDS011;7220;49.450;11.052;2023-07-28T16:58:15;2.40;;;2.20;;
14272;SDS011;7220;49.450;11.052;2023-07-28T17:02:16;3.17;;;2.40;;
14272;SDS011;7220;49.450;11.052;2023-07-28T17:06:16;2.60;;;2.33;;
14272;SDS011;7220;49.450;11.052;2023-07-28T17:10:17;3.00;;;2.75;;
14272;SDS011;7220;49.450;11.052;2023-07-28T17:14:17;2.90;;;2.60;;
14272;SDS011;7220;49.450;11.052;2023-07-28T17:18:17;3.23;;;2.73;;
14272;SDS011;7220;49.450;11.052;2023-07-28T17:22:18;2.93;;;2.63;;
14272;SDS011;7220;49.450;11.052;2023-07-28T17:26:18;3.17;;;2.60;;
14272;SDS011;7220;49.450;11.052;2023-07-28T17:30:18;2.83;;;2.53;;
14272;SDS011;7220;49.450;11.052;2023-07-28T17:34:19;2.63;;;2.40;;
14272;SDS011;7220;49.450;11.052;2023-07-28T17:38:19;5.07;;;2.70;;
14272;SDS011;7220;49.450;11.052;2023-07-28T17:42:20;2.58;;;2.30;;
14272;SDS011;7220;49.450;11.052;2023-07-28T17:46:21;2.60;;;2.40;;
14272;SDS011;7220;49.450;11.052;2023-07-28T17:50:22;3.23;;;2.27;;
14272;SDS011;7220;49.450;11.052;2023-07-28T17:54:22;2.58;;;2.38;;
14272;SDS011;7220;49.450;11.052;2023-07-28T17:58:22;2.42;;;2.15;;
14272;SDS011;7220;49.450;11.052;2023-07-28T18:02:23;2.28;;;2.08;;
14272;SDS011;7220;49.450;11.052;2023-07-28T18:06:23;2.10;;;1.90;;
14272;SDS011;7220;49.450;11.052;2023-07-28T18:10:24;3.13;;;2.60;;
14272;SDS011;7220;49.450;11.052;2023-07-28T18:14:24;3.80;;;2.67;;
14272;SDS011;7220;49.450;11.052;2023-07-28T18:18:24;2.57;;;2.37;;
14272;SDS011;7220;49.450;11.052;2023-07-28T18:22:25;3.53;;;2.60;;
14272;SDS011;7220;49.450;11.052;2023-07-28T18:26:25;4.40;;;2.77;;
14272;SDS011;7220;49.450;11.052;2023-07-28T18:30:25;2.40;;;2.20;;
14272;SDS011;7220;49.450;11.052;2023-07-28T18:34:26;2.90;;;2.63;;
14272;SDS011;7220;49.450;11.052;2023-07-28T18:38:27;2.42;;;2.20;;
14272;SDS011;7220;49.450;11.052;2023-07-28T18:42:27;3.03;;;2.70;;
14272;SDS011;7220;49.450;11.052;2023-07-28T18:46:28;2.75;;;2.55;;
14272;SDS011;7220;49.450;11.052;2023-07-28T18:50:28;3.30;;;3.00;;
14272;SDS011;7220;49.450;11.052;2023-07-28T18:54:29;3.60;;;2.80;;
14272;SDS011;7220;49.450;11.052;2023-07-28T18:58:30;2.88;;;2.30;;
14272;SDS011;7220;49.450;11.052;2023-07-28T19:02:30;2.70;;;2.50;;
14272;SDS011;7220;49.450;11.052;2023-07-28T19:06:31;4.63;;;2.67;;
14272;SDS011;7220;49.450;11.052;2023-07-28T19:10:31;3.92;;;2.70;;
14272;SDS011;7220;49.450;11.052;2023-07-28T19:14:31;6.35;;;2.85;;
14272;SDS011;7220;49.450;11.052;2023-07-28T19:18:32;3.15;;;2.88;;
14272;SDS011;7220;49.450;11.052;2023-07-28T19:22:32;3.45;;;3.15;;
14272;SDS011;7220;49.450;11.052;2023-07-28T19:26:33;4.00;;;3.63;;
14272;SDS011;7220;49.450;11.052;2023-07-28T19:30:34;5.50;;;3.60;;
14272;SDS011;7220;49.450;11.052;2023-07-28T19:34:35;4.68;;;3.13;;
14272;SDS011;7220;49.450;11.052;2023-07-28T19:38:35;3.23;;;2.93;;
14272;SDS011;7220;49.450;11.052;2023-07-28T19:42:36;3.07;;;2.77;;
14272;SDS011;7220;49.450;11.052;2023-07-28T19:46:36;3.35;;;3.05;;
14272;SDS011;7220;49.450;11.052;2023-07-28T19:50:36;2.78;;;2.58;;
14272;SDS011;7220;49.450;11.052;2023-07-28T19:54:37;3.20;;;2.90;;
14272;SDS011;7220;49.450;11.052;2023-07-28T19:58:37;3.97;;;3.67;;
14272;SDS011;7220;49.450;11.052;2023-07-28T20:02:38;4.28;;;3.80;;
14272;SDS011;7220;49.450;11.052;2023-07-28T20:06:38;3.95;;;3.35;;
14272;SDS011;7220;49.450;11.052;2023-07-28T20:10:39;4.57;;;3.92;;
14272;SDS011;7220;49.450;11.052;2023-07-28T20:14:39;3.90;;;3.35;;
14272;SDS011;7220;49.450;11.052;2023-07-28T20:18:40;5.90;;;4.40;;
14272;SDS011;7220;49.450;11.052;2023-07-28T20:22:42;4.60;;;3.60;;
14272;SDS011;7220;49.450;11.052;2023-07-28T20:26:42;3.70;;;3.40;;
14272;SDS011;7220;49.450;11.052;2023-07-28T20:30:42;3.70;;;3.40;;
14272;SDS011;7220;49.450;11.052;2023-07-28T20:34:43;5.07;;;4.00;;
14272;SDS011;7220;49.450;11.052;2023-07-28T20:38:43;3.97;;;3.67;;
14272;SDS011;7220;49.450;11.052;2023-07-28T20:42:43;4.03;;;3.60;;
14272;SDS011;7220;49.450;11.052;2023-07-28T20:46:47;4.43;;;3.70;;
14272;SDS011;7220;49.450;11.052;2023-07-28T20:50:47;3.90;;;3.55;;
14272;SDS011;7220;49.450;11.052;2023-07-28T20:54:48;4.18;;;3.78;;
14272;SDS011;7220;49.450;11.052;2023-07-28T20:58:49;4.13;;;3.47;;
14272;SDS011;7220;49.450;11.052;2023-07-28T21:02:50;4.23;;;3.50;;
14272;SDS011;7220;49.450;11.052;2023-07-28T21:06:50;4.27;;;3.43;;
14272;SDS011;7220;49.450;11.052;2023-07-28T21:10:51;3.60;;;3.33;;
14272;SDS011;7220;49.450;11.052;2023-07-28T21:14:55;3.80;;;3.22;;
14272;SDS011;7220;49.450;11.052;2023-07-28T21:18:56;3.80;;;3.08;;
14272;SDS011;7220;49.450;11.052;2023-07-28T21:22:56;3.10;;;2.80;;
14272;SDS011;7220;49.450;11.052;2023-07-28T21:26:56;3.03;;;2.78;;
14272;SDS011;7220;49.450;11.052;2023-07-28T21:30:56;3.27;;;3.03;;
14272;SDS011;7220;49.450;11.052;2023-07-28T21:34:57;3.53;;;3.20;;
14272;SDS011;7220;49.450;11.052;2023-07-28T21:38:57;2.90;;;2.70;;
14272;SDS011;7220;49.450;11.052;2023-07-28T21:43:00;3.55;;;3.25;;
14272;SDS011;7220;49.450;11.052;2023-07-28T21:47:00;4.45;;;3.08;;
14272;SDS011;7220;49.450;11.052;2023-07-28T21:51:01;2.90;;;2.70;;
14272;SDS011;7220;49.450;11.052;2023-07-28T21:55:01;3.33;;;3.00;;
14272;SDS011;7220;49.450;11.052;2023-07-28T21:59:02;3.08;;;2.75;;
14272;SDS011;7220;49.450;11.052;2023-07-28T22:03:02;3.10;;;2.80;;
14272;SDS011;7220;49.450;11.052;2023-07-28T22:07:03;4.40;;;4.00;;
14272;SDS011;7220;49.450;11.052;2023-07-28T22:11:03;3.67;;;3.15;;
14272;SDS011;7220;49.450;11.052;2023-07-28T22:15:04;2.75;;;2.55;;
14272;SDS011;7220;49.450;11.052;2023-07-28T22:19:05;3.03;;;2.72;;
14272;SDS011;7220;49.450;11.052;2023-07-28T22:23:05;2.77;;;2.57;;
14272;SDS011;7220;49.450;11.052;2023-07-28T22:27:06;2.75;;;2.50;;
14272;SDS011;7220;49.450;11.052;2023-07-28T22:31:06;3.50;;;2.50;;
14272;SDS011;7220;49.450;11.052;2023-07-28T22:35:07;3.20;;;2.70;;
14272;SDS011;7220;49.450;11.052;2023-07-28T22:39:08;3.15;;;2.83;;
14272;SDS011;7220;49.450;11.052;2023-07-28T22:43:09;2.20;;;2.10;;
14272;SDS011;7220;49.450;11.052;2023-07-28T22:47:09;3.60;;;2.78;;
14272;SDS011;7220;49.450;11.052;2023-07-28T22:51:09;2.95;;;2.65;;
14272;SDS011;7220;49.450;11.052;2023-07-28T22:55:12;2.72;;;2.45;;
14272;SDS011;7220;49.450;11.052;2023-07-28T22:59:13;2.97;;;2.60;;
14272;SDS011;7220;49.450;11.052;2023-07-28T23:03:13;2.97;;;2.50;;
14272;SDS011;7220;49.450;11.052;2023-07-28T23:07:14;2.50;;;2.30;;
14272;SDS011;7220;49.450;11.052;2023-07-28T23:11:16;3.47;;;2.63;;
14272;SDS011;7220;49.450;11.052;2023-07-28T23:15:16;3.10;;;2.83;;
14272;SDS011;7220;49.450;11.052;2023-07-28T23:19:17;3.43;;;2.83;;
14272;SDS011;7220;49.450;11.052;2023-07-28T23:23:17;4.47;;;2.90;;
14272;SDS011;7220;49.450;11.052;2023-07-28T23:27:17;3.77;;;2.70;;
14272;SDS011;7220;49.450;11.052;2023-07-28T23:31:21;3.10;;;2.80;;
14272;SDS011;7220;49.450;11.052;2023-07-28T23:35:23;5.90;;;3.10;;
14272;SDS011;7220;49.450;11.052;2023-07-28T23:39:23;3.10;;;2.70;;
14272;SDS011;7220;49.450;11.052;2023-07-28T23:43:25;3.65;;;3.35;;
14272;SDS011;7220;49.450;11.052;2023-07-28T23:47:25;3.70;;;3.40;;
14272;SDS011;7220;49.450;11.052;2023-07-28T23:51:25;3.67;;;3.10;;
14272;SDS011;7220;49.450;11.052;2023-07-28T23:55:26;4.57;;;3.65;;
14272;SDS011;7220;49.450;11.052;2023-07-28T23:59:26;3.28;;;3.03;;
